sensor_id;sensor_type;location;lat;lon;timestamp;P1;durP1;ratioP1;P2;durP2;ratioP2
9807;SDS011;4943;52.550;13.462;2023-04-16T00:00:59;105.47;;;85.40;;
9807;SDS011;4943;52.550;13.462;2023-04-16T00:03:27;102.43;;;85.07;;
9807;SDS011;4943;52.550;13.462;2023-04-16T00:05:56;109.70;;;88.00;;
9807;SDS011;4943;52.550;13.462;2023-04-16T00:08:24;110.70;;;85.23;;
9807;SDS011;4943;52.550;13.462;2023-04-16T00:10:52;113.43;;;84.47;;
9807;SDS011;4943;52.550;13.462;2023-04-16T00:13:20;108.70;;;84.77;;
9807;SDS011;4943;52.550;13.462;2023-04-16T00:15:50;109.13;;;84.90;;
9807;SDS011;4943;52.550;13.462;2023-04-16T00:18:18;109.87;;;84.33;;
9807;SDS011;4943;52.550;13.462;2023-04-16T00:20:46;116.53;;;88.50;;
9807;SDS011;4943;52.550;13.462;2023-04-16T00:23:15;113.77;;;88.00;;
9807;SDS011;4943;52.550;13.462;2023-04-16T00:25:44;118.70;;;89.07;;
9807;SDS011;4943;52.550;13.462;2023-04-16T00:28:12;113.00;;;87.60;;
9807;SDS011;4943;52.550;13.462;2023-04-16T00:30:40;106.23;;;84.33;;
9807;SDS011;4943;52.550;13.462;2023-04-16T00:33:09;124.47;;;92.70;;
9807;SDS011;4943;52.550;13.462;2023-04-16T00:35:37;122.50;;;94.07;;
9807;SDS011;4943;52.550;13.462;2023-04-16T00:38:05;116.67;;;90.50;;
9807;SDS011;4943;52.550;13.462;2023-04-16T00:40:33;106.07;;;84.90;;
9807;SDS011;4943;52.550;13.462;2023-04-16T00:43:01;113.30;;;85.80;;
9807;SDS011;4943;52.550;13.462;2023-04-16T00:45:29;107.70;;;86.07;;
9807;SDS011;4943;52.550;13.462;2023-04-16T00:47:57;101.43;;;85.83;;
9807;SDS011;4943;52.550;13.462;2023-04-16T00:50:28;108.27;;;89.93;;
9807;SDS011;4943;52.550;13.462;2023-04-16T00:52:56;120.07;;;91.47;;
9807;SDS011;4943;52.550;13.462;2023-04-16T00:55:24;104.87;;;89.57;;
9807;SDS011;4943;52.550;13.462;2023-04-16T00:57:52;97.97;;;85.37;;
9807;SDS011;4943;52.550;13.462;2023-04-16T01:00:20;99.33;;;85.33;;
9807;SDS011;4943;52.550;13.462;2023-04-16T01:02:49;101.70;;;84.83;;
9807;SDS011;4943;52.550;13.462;2023-04-16T01:05:17;110.73;;;91.50;;
9807;SDS011;4943;52.550;13.462;2023-04-16T01:07:47;111.37;;;93.03;;
9807;SDS011;4943;52.550;13.462;2023-04-16T01:10:15;117.10;;;92.67;;
9807;SDS011;4943;52.550;13.462;2023-04-16T01:12:43;121.60;;;97.27;;
9807;SDS011;4943;52.550;13.462;2023-04-16T01:15:11;120.67;;;97.63;;
9807;SDS011;4943;52.550;13.462;2023-04-16T01:17:39;120.90;;;98.60;;
9807;SDS011;4943;52.550;13.462;2023-04-16T01:20:07;118.70;;;95.63;;
9807;SDS011;4943;52.550;13.462;2023-04-16T01:22:39;115.53;;;94.30;;
9807;SDS011;4943;52.550;13.462;2023-04-16T01:25:08;118.93;;;91.60;;
9807;SDS011;4943;52.550;13.462;2023-04-16T01:27:40;116.57;;;93.63;;
9807;SDS011;4943;52.550;13.462;2023-04-16T01:30:08;115.53;;;95.03;;
9807;SDS011;4943;52.550;13.462;2023-04-16T01:32:37;120.83;;;95.87;;
9807;SDS011;4943;52.550;13.462;2023-04-16T01:35:05;122.57;;;96.65;;
9807;SDS011;4943;52.550;13.462;2023-04-16T01:37:33;117.93;;;95.70;;
9807;SDS011;4943;52.550;13.462;2023-04-16T01:40:03;117.97;;;97.27;;
9807;SDS011;4943;52.550;13.462;2023-04-16T01:42:32;118.37;;;94.43;;
9807;SDS011;4943;52.550;13.462;2023-04-16T01:45:00;114.60;;;93.63;;
9807;SDS011;4943;52.550;13.462;2023-04-16T01:47:28;123.33;;;98.37;;
9807;SDS011;4943;52.550;13.462;2023-04-16T01:49:56;125.60;;;98.40;;
9807;SDS011;4943;52.550;13.462;2023-04-16T01:52:25;128.07;;;99.83;;
9807;SDS011;4943;52.550;13.462;2023-04-16T01:54:53;119.90;;;94.53;;
9807;SDS011;4943;52.550;13.462;2023-04-16T01:57:23;124.77;;;98.33;;
9807;SDS011;4943;52.550;13.462;2023-04-16T01:59:51;120.73;;;93.57;;
9807;SDS011;4943;52.550;13.462;2023-04-16T02:02:19;131.73;;;98.77;;
9807;SDS011;4943;52.550;13.462;2023-04-16T02:04:53;126.07;;;94.53;;
9807;SDS011;4943;52.550;13.462;2023-04-16T02:07:22;122.30;;;95.80;;
9807;SDS011;4943;52.550;13.462;2023-04-16T02:09:51;115.63;;;91.10;;
9807;SDS011;4943;52.550;13.462;2023-04-16T02:12:19;132.03;;;100.87;;
9807;SDS011;4943;52.550;13.462;2023-04-16T02:14:48;127.93;;;97.63;;
9807;SDS011;4943;52.550;13.462;2023-04-16T02:17:16;117.03;;;90.07;;
9807;SDS011;4943;52.550;13.462;2023-04-16T02:19:44;115.40;;;91.00;;
9807;SDS011;4943;52.550;13.462;2023-04-16T02:22:13;123.73;;;94.83;;
9807;SDS011;4943;52.550;13.462;2023-04-16T02:24:41;117.87;;;95.17;;
9807;SDS011;4943;52.550;13.462;2023-04-16T02:27:09;120.93;;;94.33;;
9807;SDS011;4943;52.550;13.462;2023-04-16T02:29:37;119.50;;;94.03;;
9807;SDS011;4943;52.550;13.462;2023-04-16T02:32:07;124.87;;;97.27;;
9807;SDS011;4943;52.550;13.462;2023-04-16T02:34:35;124.27;;;95.27;;
9807;SDS011;4943;52.550;13.462;2023-04-16T02:37:05;125.87;;;96.60;;
9807;SDS011;4943;52.550;13.462;2023-04-16T02:39:33;120.57;;;94.73;;
9807;SDS011;4943;52.550;13.462;2023-04-16T02:42:01;127.07;;;94.30;;
9807;SDS011;4943;52.550;13.462;2023-04-16T02:44:29;125.87;;;97.20;;
9807;SDS011;4943;52.550;13.462;2023-04-16T02:46:57;133.70;;;98.47;;
9807;SDS011;4943;52.550;13.462;2023-04-16T02:49:26;128.03;;;97.70;;
9807;SDS011;4943;52.550;13.462;2023-04-16T02:51:54;130.83;;;97.23;;
9807;SDS011;4943;52.550;13.462;2023-04-16T02:54:25;135.17;;;99.30;;
9807;SDS011;4943;52.550;13.462;2023-04-16T02:56:53;130.07;;;98.07;;
9807;SDS011;4943;52.550;13.462;2023-04-16T02:59:21;130.77;;;95.77;;
9807;SDS011;4943;52.550;13.462;2023-04-16T03:01:49;130.23;;;94.00;;
9807;SDS011;4943;52.550;13.462;2023-04-16T03:04:17;127.73;;;97.67;;
9807;SDS011;4943;52.550;13.462;2023-04-16T03:06:46;124.53;;;94.70;;
9807;SDS011;4943;52.550;13.462;2023-04-16T03:09:14;126.07;;;92.87;;
9807;SDS011;4943;52.550;13.462;2023-04-16T03:11:42;131.87;;;97.97;;
9807;SDS011;4943;52.550;13.462;2023-04-16T03:14:10;123.90;;;91.13;;
9807;SDS011;4943;52.550;13.462;2023-04-16T03:16:38;123.73;;;90.17;;
9807;SDS011;4943;52.550;13.462;2023-04-16T03:19:06;127.00;;;94.70;;
9807;SDS011;4943;52.550;13.462;2023-04-16T03:21:35;129.67;;;96.03;;
9807;SDS011;4943;52.550;13.462;2023-04-16T03:24:04;128.13;;;92.07;;
9807;SDS011;4943;52.550;13.462;2023-04-16T03:26:32;127.90;;;94.73;;
9807;SDS011;4943;52.550;13.462;2023-04-16T03:29:00;119.60;;;89.50;;
9807;SDS011;4943;52.550;13.462;2023-04-16T03:31:28;127.63;;;92.87;;
9807;SDS011;4943;52.550;13.462;2023-04-16T03:33:56;124.80;;;91.73;;
9807;SDS011;4943;52.550;13.462;2023-04-16T03:36:24;127.40;;;93.93;;
9807;SDS011;4943;52.550;13.462;2023-04-16T03:38:53;122.70;;;90.60;;
9807;SDS011;4943;52.550;13.462;2023-04-16T03:41:22;123.33;;;90.37;;
9807;SDS011;4943;52.550;13.462;2023-04-16T03:43:50;116.90;;;86.73;;
9807;SDS011;4943;52.550;13.462;2023-04-16T03:46:18;121.23;;;89.77;;
9807;SDS011;4943;52.550;13.462;2023-04-16T03:48:46;119.07;;;87.53;;
9807;SDS011;4943;52.550;13.462;2023-04-16T03:51:14;118.03;;;87.47;;
9807;SDS011;4943;52.550;13.462;2023-04-16T03:53:42;116.30;;;87.90;;
9807;SDS011;4943;52.550;13.462;2023-04-16T03:56:11;120.07;;;89.77;;
9807;SDS011;4943;52.550;13.462;2023-04-16T03:58:40;121.00;;;86.70;;
9807;SDS011;4943;52.550;13.462;2023-04-16T04:01:08;120.87;;;89.13;;
9807;SDS011;4943;52.550;13.462;2023-04-16T04:03:36;121.43;;;91.70;;
9807;SDS011;4943;52.550;13.462;2023-04-16T04:06:05;118.23;;;90.90;;
9807;SDS011;4943;52.550;13.462;2023-04-16T04:08:33;130.87;;;96.43;;
9807;SDS011;4943;52.550;13.462;2023-04-16T04:11:02;118.03;;;89.07;;
9807;SDS011;4943;52.550;13.462;2023-04-16T04:13:31;119.20;;;88.93;;
9807;SDS011;4943;52.550;13.462;2023-04-16T04:16:00;110.00;;;83.37;;
9807;SDS011;4943;52.550;13.462;2023-04-16T04:18:28;115.63;;;87.23;;
9807;SDS011;4943;52.550;13.462;2023-04-16T04:20:56;112.50;;;84.57;;
9807;SDS011;4943;52.550;13.462;2023-04-16T04:23:24;114.77;;;87.70;;
9807;SDS011;4943;52.550;13.462;2023-04-16T04:25:52;114.90;;;84.77;;
9807;SDS011;4943;52.550;13.462;2023-04-16T04:28:20;118.07;;;89.23;;
9807;SDS011;4943;52.550;13.462;2023-04-16T04:30:48;121.60;;;88.33;;
9807;SDS011;4943;52.550;13.462;2023-04-16T04:33:18;113.57;;;84.60;;
9807;SDS011;4943;52.550;13.462;2023-04-16T04:35:46;105.23;;;85.10;;
9807;SDS011;4943;52.550;13.462;2023-04-16T04:38:14;112.13;;;87.83;;
9807;SDS011;4943;52.550;13.462;2023-04-16T04:40:45;110.67;;;85.10;;
9807;SDS011;4943;52.550;13.462;2023-04-16T04:43:13;112.27;;;88.50;;
9807;SDS011;4943;52.550;13.462;2023-04-16T04:45:41;116.30;;;87.63;;
9807;SDS011;4943;52.550;13.462;2023-04-16T04:48:09;115.97;;;88.83;;
9807;SDS011;4943;52.550;13.462;2023-04-16T04:50:38;98.00;;;79.80;;
9807;SDS011;4943;52.550;13.462;2023-04-16T04:53:07;115.67;;;87.87;;
9807;SDS011;4943;52.550;13.462;2023-04-16T04:55:36;110.97;;;89.43;;
9807;SDS011;4943;52.550;13.462;2023-04-16T04:58:04;104.53;;;83.60;;
9807;SDS011;4943;52.550;13.462;2023-04-16T05:00:33;109.83;;;84.87;;
9807;SDS011;4943;52.550;13.462;2023-04-16T05:03:02;107.53;;;83.13;;
9807;SDS011;4943;52.550;13.462;2023-04-16T05:05:31;113.53;;;86.83;;
9807;SDS011;4943;52.550;13.462;2023-04-16T05:08:01;119.20;;;93.57;;
9807;SDS011;4943;52.550;13.462;2023-04-16T05:10:29;114.17;;;88.13;;
9807;SDS011;4943;52.550;13.462;2023-04-16T05:12:57;114.93;;;86.33;;
9807;SDS011;4943;52.550;13.462;2023-04-16T05:15:25;126.57;;;91.73;;
9807;SDS011;4943;52.550;13.462;2023-04-16T05:17:53;118.37;;;88.03;;
9807;SDS011;4943;52.550;13.462;2023-04-16T05:20:21;120.07;;;87.37;;
9807;SDS011;4943;52.550;13.462;2023-04-16T05:22:50;121.73;;;88.00;;
9807;SDS011;4943;52.550;13.462;2023-04-16T05:25:19;116.20;;;87.40;;
9807;SDS011;4943;52.550;13.462;2023-04-16T05:27:47;119.17;;;88.77;;
9807;SDS011;4943;52.550;13.462;2023-04-16T05:30:15;116.77;;;86.43;;
9807;SDS011;4943;52.550;13.462;2023-04-16T05:32:44;119.67;;;87.50;;
9807;SDS011;4943;52.550;13.462;2023-04-16T05:35:12;110.67;;;85.67;;
9807;SDS011;4943;52.550;13.462;2023-04-16T05:37:42;117.07;;;88.00;;
9807;SDS011;4943;52.550;13.462;2023-04-16T05:40:11;114.97;;;85.43;;
9807;SDS011;4943;52.550;13.462;2023-04-16T05:42:41;110.17;;;84.47;;
9807;SDS011;4943;52.550;13.462;2023-04-16T05:45:09;112.57;;;85.43;;
9807;SDS011;4943;52.550;13.462;2023-04-16T05:47:37;112.83;;;86.97;;
9807;SDS011;4943;52.550;13.462;2023-04-16T05:50:06;119.13;;;90.43;;
9807;SDS011;4943;52.550;13.462;2023-04-16T05:52:34;110.13;;;86.53;;
9807;SDS011;4943;52.550;13.462;2023-04-16T05:55:02;111.93;;;86.50;;
9807;SDS011;4943;52.550;13.462;2023-04-16T05:57:31;121.77;;;89.53;;
9807;SDS011;4943;52.550;13.462;2023-04-16T06:00:01;120.77;;;89.80;;
9807;SDS011;4943;52.550;13.462;2023-04-16T06:02:29;114.30;;;88.53;;
9807;SDS011;4943;52.550;13.462;2023-04-16T06:04:57;115.07;;;87.07;;
9807;SDS011;4943;52.550;13.462;2023-04-16T06:07:26;119.13;;;89.67;;
9807;SDS011;4943;52.550;13.462;2023-04-16T06:09:53;113.73;;;87.57;;
9807;SDS011;4943;52.550;13.462;2023-04-16T06:12:23;110.83;;;86.50;;
9807;SDS011;4943;52.550;13.462;2023-04-16T06:14:51;117.17;;;89.10;;
9807;SDS011;4943;52.550;13.462;2023-04-16T06:17:20;113.17;;;87.03;;
9807;SDS011;4943;52.550;13.462;2023-04-16T06:19:49;116.60;;;90.00;;
9807;SDS011;4943;52.550;13.462;2023-04-16T06:22:16;119.93;;;93.73;;
9807;SDS011;4943;52.550;13.462;2023-04-16T06:24:45;116.67;;;89.77;;
9807;SDS011;4943;52.550;13.462;2023-04-16T06:27:13;120.00;;;92.10;;
9807;SDS011;4943;52.550;13.462;2023-04-16T06:29:41;120.00;;;92.73;;
9807;SDS011;4943;52.550;13.462;2023-04-16T06:32:09;119.60;;;89.30;;
9807;SDS011;4943;52.550;13.462;2023-04-16T06:34:38;112.07;;;91.33;;
9807;SDS011;4943;52.550;13.462;2023-04-16T06:37:06;111.37;;;87.87;;
9807;SDS011;4943;52.550;13.462;2023-04-16T06:39:36;113.33;;;89.57;;
9807;SDS011;4943;52.550;13.462;2023-04-16T06:42:04;117.97;;;94.07;;
9807;SDS011;4943;52.550;13.462;2023-04-16T06:44:32;112.70;;;93.10;;
9807;SDS011;4943;52.550;13.462;2023-04-16T06:47:00;112.67;;;88.27;;
9807;SDS011;4943;52.550;13.462;2023-04-16T06:49:28;110.93;;;87.30;;
9807;SDS011;4943;52.550;13.462;2023-04-16T06:51:57;123.00;;;95.63;;
9807;SDS011;4943;52.550;13.462;2023-04-16T06:54:25;131.33;;;101.47;;
9807;SDS011;4943;52.550;13.462;2023-04-16T06:56:53;125.47;;;96.03;;
9807;SDS011;4943;52.550;13.462;2023-04-16T06:59:21;127.80;;;97.83;;
9807;SDS011;4943;52.550;13.462;2023-04-16T07:01:50;130.17;;;95.93;;
9807;SDS011;4943;52.550;13.462;2023-04-16T07:04:18;132.27;;;100.13;;
9807;SDS011;4943;52.550;13.462;2023-04-16T07:06:47;134.63;;;97.93;;
9807;SDS011;4943;52.550;13.462;2023-04-16T07:09:16;132.50;;;96.57;;
9807;SDS011;4943;52.550;13.462;2023-04-16T07:11:44;130.27;;;98.73;;
9807;SDS011;4943;52.550;13.462;2023-04-16T07:14:12;138.50;;;103.43;;
9807;SDS011;4943;52.550;13.462;2023-04-16T07:16:41;134.50;;;99.43;;
9807;SDS011;4943;52.550;13.462;2023-04-16T07:19:09;134.53;;;98.30;;
9807;SDS011;4943;52.550;13.462;2023-04-16T07:21:37;131.97;;;95.80;;
9807;SDS011;4943;52.550;13.462;2023-04-16T07:24:07;134.47;;;97.50;;
9807;SDS011;4943;52.550;13.462;2023-04-16T07:26:37;136.00;;;97.97;;
9807;SDS011;4943;52.550;13.462;2023-04-16T07:29:05;137.03;;;99.70;;
9807;SDS011;4943;52.550;13.462;2023-04-16T07:31:33;133.73;;;97.43;;
9807;SDS011;4943;52.550;13.462;2023-04-16T07:34:01;138.70;;;99.47;;
9807;SDS011;4943;52.550;13.462;2023-04-16T07:36:30;123.57;;;91.83;;
9807;SDS011;4943;52.550;13.462;2023-04-16T07:38:58;132.27;;;96.90;;
9807;SDS011;4943;52.550;13.462;2023-04-16T07:41:26;126.27;;;92.87;;
9807;SDS011;4943;52.550;13.462;2023-04-16T07:43:56;123.90;;;92.37;;
9807;SDS011;4943;52.550;13.462;2023-04-16T07:46:24;120.00;;;90.47;;
9807;SDS011;4943;52.550;13.462;2023-04-16T07:49:04;128.37;;;99.67;;
9807;SDS011;4943;52.550;13.462;2023-04-16T07:51:33;122.57;;;94.00;;
9807;SDS011;4943;52.550;13.462;2023-04-16T07:54:01;135.43;;;98.27;;
9807;SDS011;4943;52.550;13.462;2023-04-16T07:56:29;141.90;;;103.53;;
9807;SDS011;4943;52.550;13.462;2023-04-16T07:58:58;128.90;;;99.00;;
9807;SDS011;4943;52.550;13.462;2023-04-16T08:01:46;140.13;;;100.47;;
9807;SDS011;4943;52.550;13.462;2023-04-16T08:04:14;155.60;;;106.70;;
9807;SDS011;4943;52.550;13.462;2023-04-16T08:06:48;154.83;;;101.93;;
9807;SDS011;4943;52.550;13.462;2023-04-16T08:09:17;157.20;;;105.57;;
9807;SDS011;4943;52.550;13.462;2023-04-16T08:11:45;157.30;;;107.17;;
9807;SDS011;4943;52.550;13.462;2023-04-16T08:14:16;142.80;;;104.07;;
9807;SDS011;4943;52.550;13.462;2023-04-16T08:16:45;147.17;;;102.20;;
9807;SDS011;4943;52.550;13.462;2023-04-16T08:19:13;140.63;;;100.13;;
9807;SDS011;4943;52.550;13.462;2023-04-16T08:21:41;156.13;;;109.90;;
9807;SDS011;4943;52.550;13.462;2023-04-16T08:24:09;161.30;;;104.87;;
9807;SDS011;4943;52.550;13.462;2023-04-16T08:26:37;150.70;;;106.90;;
9807;SDS011;4943;52.550;13.462;2023-04-16T08:29:05;162.63;;;107.60;;
9807;SDS011;4943;52.550;13.462;2023-04-16T08:31:35;165.47;;;109.33;;
9807;SDS011;4943;52.550;13.462;2023-04-16T08:34:03;172.13;;;109.37;;
9807;SDS011;4943;52.550;13.462;2023-04-16T08:36:31;163.30;;;106.40;;
9807;SDS011;4943;52.550;13.462;2023-04-16T08:38:59;169.40;;;111.27;;
9807;SDS011;4943;52.550;13.462;2023-04-16T08:41:27;162.90;;;107.63;;
9807;SDS011;4943;52.550;13.462;2023-04-16T08:43:57;175.80;;;112.03;;
9807;SDS011;4943;52.550;13.462;2023-04-16T08:46:31;175.77;;;114.77;;
9807;SDS011;4943;52.550;13.462;2023-04-16T08:49:04;172.20;;;109.67;;
9807;SDS011;4943;52.550;13.462;2023-04-16T08:51:34;178.07;;;112.20;;
9807;SDS011;4943;52.550;13.462;2023-04-16T08:54:03;182.13;;;114.87;;
9807;SDS011;4943;52.550;13.462;2023-04-16T08:56:34;184.93;;;116.77;;
9807;SDS011;4943;52.550;13.462;2023-04-16T08:59:03;193.47;;;116.93;;
9807;SDS011;4943;52.550;13.462;2023-04-16T09:01:31;200.10;;;117.63;;
9807;SDS011;4943;52.550;13.462;2023-04-16T09:04:00;190.60;;;115.70;;
9807;SDS011;4943;52.550;13.462;2023-04-16T09:06:30;193.17;;;118.83;;
9807;SDS011;4943;52.550;13.462;2023-04-16T09:09:00;191.20;;;117.00;;
9807;SDS011;4943;52.550;13.462;2023-04-16T09:11:30;198.23;;;127.00;;
9807;SDS011;4943;52.550;13.462;2023-04-16T09:13:59;195.97;;;123.10;;
9807;SDS011;4943;52.550;13.462;2023-04-16T09:16:27;205.20;;;123.43;;
9807;SDS011;4943;52.550;13.462;2023-04-16T09:18:59;216.60;;;133.03;;
9807;SDS011;4943;52.550;13.462;2023-04-16T09:21:27;200.33;;;127.00;;
9807;SDS011;4943;52.550;13.462;2023-04-16T09:23:57;200.80;;;126.27;;
9807;SDS011;4943;52.550;13.462;2023-04-16T09:26:26;173.53;;;125.60;;
9807;SDS011;4943;52.550;13.462;2023-04-16T09:28:54;167.90;;;126.40;;
9807;SDS011;4943;52.550;13.462;2023-04-16T09:31:22;171.07;;;130.37;;
9807;SDS011;4943;52.550;13.462;2023-04-16T09:34:00;151.00;;;120.47;;
9807;SDS011;4943;52.550;13.462;2023-04-16T09:36:29;162.43;;;124.37;;
9807;SDS011;4943;52.550;13.462;2023-04-16T09:38:59;163.73;;;125.10;;
9807;SDS011;4943;52.550;13.462;2023-04-16T09:41:29;159.13;;;120.83;;
9807;SDS011;4943;52.550;13.462;2023-04-16T09:43:58;154.07;;;117.80;;
9807;SDS011;4943;52.550;13.462;2023-04-16T09:46:28;165.37;;;120.37;;
9807;SDS011;4943;52.550;13.462;2023-04-16T09:48:57;163.63;;;119.97;;
9807;SDS011;4943;52.550;13.462;2023-04-16T09:51:35;164.67;;;119.40;;
9807;SDS011;4943;52.550;13.462;2023-04-16T09:54:05;167.10;;;123.13;;
9807;SDS011;4943;52.550;13.462;2023-04-16T09:56:33;183.40;;;129.60;;
9807;SDS011;4943;52.550;13.462;2023-04-16T09:59:06;182.70;;;127.50;;
9807;SDS011;4943;52.550;13.462;2023-04-16T10:01:37;180.67;;;127.40;;
9807;SDS011;4943;52.550;13.462;2023-04-16T10:04:05;181.35;;;131.10;;
9807;SDS011;4943;52.550;13.462;2023-04-16T10:06:34;178.93;;;131.33;;
9807;SDS011;4943;52.550;13.462;2023-04-16T10:09:02;182.43;;;130.87;;
9807;SDS011;4943;52.550;13.462;2023-04-16T10:11:36;167.67;;;128.13;;
9807;SDS011;4943;52.550;13.462;2023-04-16T10:14:04;130.32;;;116.03;;
9807;SDS011;4943;52.550;13.462;2023-04-16T10:16:34;43.90;;;40.47;;
9807;SDS011;4943;52.550;13.462;2023-04-16T10:19:05;67.50;;;61.92;;
9807;SDS011;4943;52.550;13.462;2023-04-16T10:21:33;82.53;;;73.93;;
9807;SDS011;4943;52.550;13.462;2023-04-16T10:24:01;84.95;;;76.45;;
9807;SDS011;4943;52.550;13.462;2023-04-16T10:26:31;28.48;;;26.27;;
9807;SDS011;4943;52.550;13.462;2023-04-16T10:29:01;39.28;;;36.63;;
9807;SDS011;4943;52.550;13.462;2023-04-16T10:31:30;57.10;;;53.05;;
9807;SDS011;4943;52.550;13.462;2023-04-16T10:33:58;135.88;;;122.60;;
9807;SDS011;4943;52.550;13.462;2023-04-16T10:36:26;123.45;;;111.90;;
9807;SDS011;4943;52.550;13.462;2023-04-16T10:38:56;50.60;;;46.92;;
9807;SDS011;4943;52.550;13.462;2023-04-16T10:41:25;51.57;;;47.80;;
9807;SDS011;4943;52.550;13.462;2023-04-16T10:44:02;98.47;;;90.47;;
9807;SDS011;4943;52.550;13.462;2023-04-16T10:46:35;82.53;;;76.15;;
9807;SDS011;4943;52.550;13.462;2023-04-16T10:49:14;107.93;;;98.50;;
9807;SDS011;4943;52.550;13.462;2023-04-16T10:51:54;117.15;;;106.75;;
9807;SDS011;4943;52.550;13.462;2023-04-16T10:54:23;153.38;;;137.50;;
9807;SDS011;4943;52.550;13.462;2023-04-16T10:56:52;148.10;;;133.48;;
9807;SDS011;4943;52.550;13.462;2023-04-16T10:59:24;73.80;;;68.13;;
9807;SDS011;4943;52.550;13.462;2023-04-16T11:01:57;120.20;;;110.47;;
9807;SDS011;4943;52.550;13.462;2023-04-16T11:04:28;77.85;;;72.32;;
9807;SDS011;4943;52.550;13.462;2023-04-16T11:07:03;44.60;;;41.53;;
9807;SDS011;4943;52.550;13.462;2023-04-16T11:09:53;62.05;;;57.83;;
9807;SDS011;4943;52.550;13.462;2023-04-16T11:12:23;43.28;;;40.47;;
9807;SDS011;4943;52.550;13.462;2023-04-16T11:14:57;41.33;;;38.72;;
9807;SDS011;4943;52.550;13.462;2023-04-16T11:17:28;101.07;;;93.85;;
9807;SDS011;4943;52.550;13.462;2023-04-16T11:20:04;113.38;;;104.70;;
9807;SDS011;4943;52.550;13.462;2023-04-16T11:22:45;125.13;;;115.10;;
9807;SDS011;4943;52.550;13.462;2023-04-16T11:25:18;114.88;;;105.75;;
9807;SDS011;4943;52.550;13.462;2023-04-16T11:27:47;150.40;;;136.10;;
9807;SDS011;4943;52.550;13.462;2023-04-16T11:30:16;102.90;;;94.75;;
9807;SDS011;4943;52.550;13.462;2023-04-16T11:32:46;156.70;;;140.90;;
9807;SDS011;4943;52.550;13.462;2023-04-16T11:35:14;76.13;;;70.57;;
9807;SDS011;4943;52.550;13.462;2023-04-16T11:37:44;50.20;;;46.60;;
9807;SDS011;4943;52.550;13.462;2023-04-16T11:40:13;32.80;;;30.42;;
9807;SDS011;4943;52.550;13.462;2023-04-16T11:42:41;40.38;;;37.78;;
9807;SDS011;4943;52.550;13.462;2023-04-16T11:45:10;28.05;;;25.95;;
9807;SDS011;4943;52.550;13.462;2023-04-16T11:47:43;25.92;;;24.02;;
9807;SDS011;4943;52.550;13.462;2023-04-16T11:50:19;10.95;;;9.85;;
9807;SDS011;4943;52.550;13.462;2023-04-16T11:52:49;22.67;;;20.98;;
9807;SDS011;4943;52.550;13.462;2023-04-16T11:55:18;10.32;;;9.25;;
9807;SDS011;4943;52.550;13.462;2023-04-16T11:57:47;9.98;;;9.00;;
9807;SDS011;4943;52.550;13.462;2023-04-16T12:00:17;12.38;;;9.07;;
9807;SDS011;4943;52.550;13.462;2023-04-16T12:02:52;37.00;;;34.17;;
9807;SDS011;4943;52.550;13.462;2023-04-16T12:05:27;9.25;;;8.25;;
9807;SDS011;4943;52.550;13.462;2023-04-16T12:07:57;21.77;;;20.38;;
9807;SDS011;4943;52.550;13.462;2023-04-16T12:10:26;16.73;;;15.20;;
9807;SDS011;4943;52.550;13.462;2023-04-16T12:13:08;42.03;;;38.85;;
9807;SDS011;4943;52.550;13.462;2023-04-16T12:15:43;46.20;;;42.80;;
9807;SDS011;4943;52.550;13.462;2023-04-16T12:18:14;35.67;;;32.65;;
9807;SDS011;4943;52.550;13.462;2023-04-16T12:20:42;40.92;;;37.45;;
9807;SDS011;4943;52.550;13.462;2023-04-16T12:23:20;39.20;;;35.83;;
9807;SDS011;4943;52.550;13.462;2023-04-16T12:25:50;36.60;;;33.80;;
9807;SDS011;4943;52.550;13.462;2023-04-16T12:28:28;32.88;;;30.33;;
9807;SDS011;4943;52.550;13.462;2023-04-16T12:30:57;44.28;;;40.97;;
9807;SDS011;4943;52.550;13.462;2023-04-16T12:33:26;45.05;;;41.95;;
9807;SDS011;4943;52.550;13.462;2023-04-16T12:35:55;62.88;;;57.67;;
9807;SDS011;4943;52.550;13.462;2023-04-16T12:38:23;58.50;;;54.22;;
9807;SDS011;4943;52.550;13.462;2023-04-16T12:40:52;64.03;;;58.80;;
9807;SDS011;4943;52.550;13.462;2023-04-16T12:43:22;38.97;;;36.30;;
9807;SDS011;4943;52.550;13.462;2023-04-16T12:45:50;54.78;;;50.67;;
9807;SDS011;4943;52.550;13.462;2023-04-16T12:48:18;69.50;;;63.45;;
9807;SDS011;4943;52.550;13.462;2023-04-16T12:50:48;137.77;;;122.93;;
9807;SDS011;4943;52.550;13.462;2023-04-16T12:53:16;145.90;;;121.47;;
9807;SDS011;4943;52.550;13.462;2023-04-16T12:55:44;38.75;;;35.55;;
9807;SDS011;4943;52.550;13.462;2023-04-16T12:58:12;116.77;;;105.33;;
9807;SDS011;4943;52.550;13.462;2023-04-16T13:00:40;107.53;;;97.90;;
9807;SDS011;4943;52.550;13.462;2023-04-16T13:03:08;88.93;;;81.22;;
9807;SDS011;4943;52.550;13.462;2023-04-16T13:05:37;70.53;;;64.53;;
9807;SDS011;4943;52.550;13.462;2023-04-16T13:08:06;25.88;;;24.00;;
9807;SDS011;4943;52.550;13.462;2023-04-16T13:10:34;85.15;;;77.60;;
9807;SDS011;4943;52.550;13.462;2023-04-16T13:13:02;93.73;;;85.33;;
9807;SDS011;4943;52.550;13.462;2023-04-16T13:15:30;84.67;;;76.53;;
9807;SDS011;4943;52.550;13.462;2023-04-16T13:17:58;97.00;;;87.57;;
9807;SDS011;4943;52.550;13.462;2023-04-16T13:20:26;97.90;;;88.43;;
9807;SDS011;4943;52.550;13.462;2023-04-16T13:22:54;102.03;;;92.23;;
9807;SDS011;4943;52.550;13.462;2023-04-16T13:25:24;91.30;;;83.10;;
9807;SDS011;4943;52.550;13.462;2023-04-16T13:27:52;17.45;;;15.88;;
9807;SDS011;4943;52.550;13.462;2023-04-16T13:30:20;43.30;;;40.70;;
9807;SDS011;4943;52.550;13.462;2023-04-16T13:32:48;20.05;;;18.15;;
9807;SDS011;4943;52.550;13.462;2023-04-16T13:35:16;39.03;;;36.85;;
9807;SDS011;4943;52.550;13.462;2023-04-16T13:37:44;20.58;;;19.38;;
9807;SDS011;4943;52.550;13.462;2023-04-16T13:40:12;22.30;;;20.83;;
9807;SDS011;4943;52.550;13.462;2023-04-16T13:42:41;30.70;;;27.70;;
9807;SDS011;4943;52.550;13.462;2023-04-16T13:45:09;39.08;;;36.10;;
9807;SDS011;4943;52.550;13.462;2023-04-16T13:47:38;33.05;;;31.02;;
9807;SDS011;4943;52.550;13.462;2023-04-16T13:50:08;49.00;;;46.05;;
9807;SDS011;4943;52.550;13.462;2023-04-16T13:52:36;58.30;;;54.65;;
9807;SDS011;4943;52.550;13.462;2023-04-16T13:55:05;41.97;;;39.53;;
9807;SDS011;4943;52.550;13.462;2023-04-16T13:57:34;32.35;;;30.50;;
9807;SDS011;4943;52.550;13.462;2023-04-16T14:00:05;31.65;;;29.90;;
9807;SDS011;4943;52.550;13.462;2023-04-16T14:02:38;61.63;;;57.67;;
9807;SDS011;4943;52.550;13.462;2023-04-16T14:05:09;5.32;;;4.13;;
9807;SDS011;4943;52.550;13.462;2023-04-16T14:07:37;6.85;;;6.22;;
9807;SDS011;4943;52.550;13.462;2023-04-16T14:10:05;5.85;;;5.25;;
9807;SDS011;4943;52.550;13.462;2023-04-16T14:12:34;6.40;;;5.75;;
9807;SDS011;4943;52.550;13.462;2023-04-16T14:15:05;7.53;;;4.43;;
9807;SDS011;4943;52.550;13.462;2023-04-16T14:17:34;5.25;;;4.75;;
9807;SDS011;4943;52.550;13.462;2023-04-16T14:20:03;5.63;;;4.47;;
9807;SDS011;4943;52.550;13.462;2023-04-16T14:22:32;4.38;;;3.58;;
9807;SDS011;4943;52.550;13.462;2023-04-16T14:25:00;5.85;;;4.65;;
9807;SDS011;4943;52.550;13.462;2023-04-16T14:27:28;7.75;;;4.30;;
9807;SDS011;4943;52.550;13.462;2023-04-16T14:29:56;6.75;;;4.85;;
9807;SDS011;4943;52.550;13.462;2023-04-16T14:32:26;7.90;;;5.10;;
9807;SDS011;4943;52.550;13.462;2023-04-16T14:34:54;13.00;;;12.00;;